Terminal Aerodrome Forecast
Issued by NWS Billings, MT

Home | Current Version | Previous Version | Text Only | Print | Product List | Glossary On
Versions: 1 2 3 4 5 6 7 8 9 10 11 12 13 14 15
000
FTUS45 KBYZ 241120
TAFBIL
TAF
KBIL 241120Z 2412/2512 24010KT P6SM SKC
     FM241500 34010KT P6SM SCT250
     FM242000 04010KT P6SM FEW100 SCT200
     FM250000 04010KT P6SM VCTS FEW100CB BKN200=

USA.gov is the U.S. government's official web portal to all federal, state and local government web resources and services.